createdAt,value
2018-02-22T00:02:16.036Z,0.00
2018-02-22T00:04:44.927Z,0.00
2018-02-22T00:07:16.380Z,-0.10
2018-02-22T00:09:46.794Z,-0.10
2018-02-22T00:14:53.949Z,-0.10
2018-02-22T00:17:24.012Z,-0.10
2018-02-22T00:19:55.303Z,-0.10
2018-02-22T00:22:25.525Z,-0.10
2018-02-22T00:24:57.632Z,-0.10
2018-02-22T00:27:30.062Z,-0.10
2018-02-22T00:29:57.568Z,-0.10
2018-02-22T00:32:26.638Z,-0.10
2018-02-22T00:34:56.016Z,-0.20
2018-02-22T00:37:27.319Z,-0.20
2018-02-22T00:39:56.184Z,-0.20
2018-02-22T00:42:35.084Z,-0.20
2018-02-22T00:45:03.810Z,-0.20
2018-02-22T00:47:36.654Z,-0.30
2018-02-22T00:50:13.264Z,-0.30
2018-02-22T00:52:40.771Z,-0.30
2018-02-22T00:55:08.196Z,-0.30
2018-02-22T00:57:35.631Z,-0.30
2018-02-22T01:00:03.064Z,-0.30
2018-02-22T01:02:30.504Z,-0.30
2018-02-22T01:04:57.956Z,-0.30
2018-02-22T01:07:25.418Z,-0.30
2018-02-22T01:09:52.823Z,-0.30
2018-02-22T01:12:20.648Z,-0.30
2018-02-22T01:14:48.090Z,-0.30
2018-02-22T01:17:15.528Z,-0.30
2018-02-22T01:19:42.956Z,-0.30
2018-02-22T01:22:10.784Z,-0.30
2018-02-22T01:24:38.219Z,-0.30
2018-02-22T01:27:05.664Z,-0.30
2018-02-22T01:29:33.116Z,-0.40
2018-02-22T01:32:00.547Z,-0.30
2018-02-22T01:34:27.989Z,-0.40
2018-02-22T01:36:55.420Z,-0.30
2018-02-22T01:39:22.852Z,-0.30
2018-02-22T01:41:50.280Z,-0.30
2018-02-22T01:44:17.716Z,-0.40
2018-02-22T01:46:45.159Z,-0.40
2018-02-22T01:49:12.596Z,-0.40
2018-02-22T01:51:40.036Z,-0.40
2018-02-22T01:54:07.489Z,-0.40
2018-02-22T01:56:35.563Z,-0.30
2018-02-22T01:59:03.012Z,-0.40
2018-02-22T02:01:30.435Z,-0.40
2018-02-22T02:03:58.260Z,-0.30
2018-02-22T02:06:25.697Z,-0.30
2018-02-22T02:08:53.138Z,-0.30
2018-02-22T02:11:20.576Z,-0.30
2018-02-22T02:13:48.398Z,-0.30
2018-02-22T02:16:15.840Z,-0.30
2018-02-22T02:18:43.272Z,-0.30
2018-02-22T02:21:10.709Z,-0.30
2018-02-22T02:23:38.532Z,-0.30
2018-02-22T02:26:05.977Z,-0.30
2018-02-22T02:28:33.400Z,-0.30
2018-02-22T02:31:00.860Z,-0.30
2018-02-22T02:33:28.283Z,-0.30
2018-02-22T02:35:55.726Z,-0.30
2018-02-22T02:38:23.145Z,-0.30
2018-02-22T02:40:50.596Z,-0.40
2018-02-22T02:43:18.051Z,-0.40
2018-02-22T02:45:45.484Z,-0.40
2018-02-22T02:48:13.312Z,-0.40
2018-02-22T02:50:40.743Z,-0.40
2018-02-22T02:53:08.186Z,-0.40
2018-02-22T02:55:35.637Z,-0.40
2018-02-22T02:58:03.094Z,-0.40
2018-02-22T03:00:30.517Z,-0.40
2018-02-22T03:02:57.953Z,-0.40
2018-02-22T03:05:25.392Z,-0.40
2018-02-22T03:07:52.847Z,-0.40
2018-02-22T03:10:20.298Z,-0.40
2018-02-22T03:12:47.750Z,-0.40
2018-02-22T03:15:15.192Z,-0.40
2018-02-22T03:17:42.629Z,-0.40
2018-02-22T03:20:10.057Z,-0.40
2018-02-22T03:22:37.500Z,-0.40
2018-02-22T03:25:04.932Z,-0.40
2018-02-22T03:27:32.372Z,-0.50
2018-02-22T03:29:59.816Z,-0.50
2018-02-22T03:32:27.267Z,-0.50
2018-02-22T03:34:54.696Z,-0.60
2018-02-22T03:37:22.128Z,-0.60
2018-02-22T03:39:49.567Z,-0.60
2018-02-22T03:42:17.005Z,-0.60
2018-02-22T03:44:44.432Z,-0.70
2018-02-22T03:47:11.884Z,-0.70
2018-02-22T03:49:39.312Z,-0.70
2018-02-22T03:52:06.746Z,-0.70
2018-02-22T03:54:34.205Z,-0.70
2018-02-22T03:57:01.636Z,-0.70
2018-02-22T03:59:29.072Z,-0.80
2018-02-22T04:01:56.888Z,-0.80
2018-02-22T04:04:24.321Z,-0.80
2018-02-22T04:06:51.743Z,-0.80
2018-02-22T04:09:19.181Z,-0.80
2018-02-22T04:11:46.587Z,-0.80
2018-02-22T04:14:14.025Z,-0.80
2018-02-22T04:16:41.452Z,-0.80
2018-02-22T04:19:08.884Z,-0.80
2018-02-22T04:21:36.316Z,-0.80
2018-02-22T04:24:03.786Z,-0.80
2018-02-22T04:26:31.200Z,-0.80
2018-02-22T04:28:59.038Z,-0.80
2018-02-22T04:31:26.465Z,-0.80
2018-02-22T04:33:53.922Z,-0.80
2018-02-22T04:36:21.351Z,-0.80
2018-02-22T04:38:48.800Z,-0.80
2018-02-22T04:41:16.230Z,-0.80
2018-02-22T04:43:43.652Z,-0.90
2018-02-22T04:46:11.097Z,-0.90
2018-02-22T04:48:38.524Z,-0.90
2018-02-22T04:51:06.353Z,-0.90
2018-02-22T04:53:33.789Z,-0.90
2018-02-22T04:56:01.220Z,-0.90
2018-02-22T04:58:28.652Z,-0.90
2018-02-22T05:00:56.088Z,-0.90
2018-02-22T05:03:23.516Z,-0.80
2018-02-22T05:05:50.957Z,-0.90
2018-02-22T05:08:18.390Z,-0.90
2018-02-22T05:10:45.832Z,-0.90
2018-02-22T05:13:13.248Z,-0.90
2018-02-22T05:15:40.728Z,-0.90
2018-02-22T05:18:08.161Z,-0.90
2018-02-22T05:20:35.599Z,-0.90
2018-02-22T05:23:03.018Z,-0.90
2018-02-22T05:25:30.849Z,-0.90
2018-02-22T05:27:58.274Z,-0.90
2018-02-22T05:30:25.693Z,-0.90
2018-02-22T05:32:53.529Z,-0.90
2018-02-22T05:35:20.954Z,-0.90
2018-02-22T05:37:48.387Z,-0.90
2018-02-22T05:40:15.820Z,-0.90
2018-02-22T05:42:43.251Z,-0.90
2018-02-22T05:45:10.679Z,-0.80
2018-02-22T05:47:38.125Z,-0.90
2018-02-22T05:50:06.441Z,-0.80
2018-02-22T05:52:33.880Z,-0.80
2018-02-22T05:55:02.114Z,-0.90
2018-02-22T05:57:29.941Z,-0.90
2018-02-22T05:59:57.917Z,-0.90
2018-02-22T06:02:25.353Z,-0.90
2018-02-22T06:04:52.780Z,-0.90
2018-02-22T06:07:20.230Z,-0.90
2018-02-22T06:09:47.655Z,-0.90
2018-02-22T06:12:15.096Z,-0.90
2018-02-22T06:14:42.523Z,-0.90
2018-02-22T06:17:09.936Z,-0.90
2018-02-22T06:19:37.365Z,-0.90
2018-02-22T06:22:04.803Z,-0.90
2018-02-22T06:24:32.240Z,-0.90
2018-02-22T06:26:59.668Z,-0.90
2018-02-22T06:29:27.095Z,-0.90
2018-02-22T06:31:54.513Z,-0.90
2018-02-22T06:34:21.951Z,-0.90
2018-02-22T06:36:49.369Z,-0.90
2018-02-22T06:39:16.801Z,-0.90
2018-02-22T06:41:44.231Z,-0.90
2018-02-22T06:44:11.675Z,-0.90
2018-02-22T06:46:39.092Z,-0.90
2018-02-22T06:49:06.520Z,-0.90
2018-02-22T06:51:33.974Z,-0.90
2018-02-22T06:54:01.407Z,-0.90
2018-02-22T06:56:28.848Z,-0.90
2018-02-22T06:58:56.272Z,-0.90
2018-02-22T07:01:23.697Z,-0.90
2018-02-22T07:03:51.140Z,-0.90
2018-02-22T07:06:18.590Z,-0.90
2018-02-22T07:08:46.239Z,-0.90
2018-02-22T07:11:13.727Z,-0.80
2018-02-22T07:13:41.181Z,-0.80
2018-02-22T07:16:08.614Z,-0.80
2018-02-22T07:18:36.622Z,-0.80
2018-02-22T07:21:04.805Z,-0.70
2018-02-22T07:23:32.236Z,-0.70
2018-02-22T07:25:59.668Z,-0.70
2018-02-22T07:28:27.532Z,-0.70
2018-02-22T07:30:55.469Z,-0.60
2018-02-22T07:33:22.908Z,-0.60
2018-02-22T07:35:50.356Z,-0.60
2018-02-22T07:38:17.797Z,-0.50
2018-02-22T07:40:45.238Z,-0.50
2018-02-22T07:43:13.131Z,-0.50
2018-02-22T07:45:40.562Z,-0.50
2018-02-22T07:48:08.044Z,-0.40
2018-02-22T07:50:35.488Z,-0.40
2018-02-22T07:53:02.921Z,-0.40
2018-02-22T07:55:30.405Z,-0.40
2018-02-22T07:57:57.878Z,-0.30
2018-02-22T08:00:26.886Z,-0.30
2018-02-22T08:02:54.374Z,-0.30
2018-02-22T08:05:22.216Z,-0.20
2018-02-22T08:07:49.664Z,-0.20
2018-02-22T08:10:17.124Z,-0.20
2018-02-22T08:12:44.630Z,-0.20
2018-02-22T08:15:12.072Z,-0.20
2018-02-22T08:17:39.502Z,-0.10
2018-02-22T08:20:06.933Z,0.00
2018-02-22T08:22:34.384Z,0.00
2018-02-22T08:25:01.817Z,0.00
2018-02-22T08:27:29.268Z,0.10
2018-02-22T08:29:56.731Z,0.10
2018-02-22T08:32:24.195Z,0.10
2018-02-22T08:34:51.625Z,0.10
2018-02-22T08:37:19.055Z,0.20
2018-02-22T08:39:46.476Z,0.30
2018-02-22T08:42:13.895Z,0.30
2018-02-22T08:44:41.342Z,0.30
2018-02-22T08:47:09.144Z,0.30
2018-02-22T08:49:36.592Z,0.30
2018-02-22T08:52:04.017Z,0.30
2018-02-22T08:54:31.449Z,0.40
2018-02-22T08:56:58.905Z,0.50
2018-02-22T08:59:26.344Z,0.50
2018-02-22T09:01:53.765Z,0.60
2018-02-22T09:04:21.207Z,0.60
2018-02-22T09:06:48.616Z,0.60
2018-02-22T09:09:16.048Z,0.70
2018-02-22T09:11:43.472Z,0.80
2018-02-22T09:14:10.892Z,0.80
2018-02-22T09:16:38.307Z,0.80
2018-02-22T09:19:05.741Z,0.80
2018-02-22T09:21:33.165Z,0.90
2018-02-22T09:24:00.601Z,1.00
2018-02-22T09:26:28.025Z,1.00
2018-02-22T09:28:55.448Z,1.00
2018-02-22T09:31:22.871Z,1.10
2018-02-22T09:33:50.300Z,1.20
2018-02-22T09:36:17.746Z,1.20
2018-02-22T09:38:45.341Z,1.20
2018-02-22T09:41:12.781Z,1.20
2018-02-22T09:43:40.267Z,1.30
2018-02-22T09:46:07.665Z,1.30
2018-02-22T09:48:35.085Z,1.30
2018-02-22T09:51:02.501Z,1.30
2018-02-22T09:53:29.923Z,1.30
2018-02-22T09:55:57.736Z,1.30
2018-02-22T09:58:25.178Z,1.40
2018-02-22T10:00:52.640Z,1.40
2018-02-22T10:03:20.022Z,1.50
2018-02-22T10:05:47.452Z,1.50
2018-02-22T10:08:14.872Z,1.50
2018-02-22T10:10:42.332Z,1.40
2018-02-22T10:13:09.775Z,1.40
2018-02-22T10:15:37.632Z,1.50
2018-02-22T10:18:05.033Z,1.50
2018-02-22T10:20:32.460Z,1.50
2018-02-22T10:22:59.900Z,1.50
2018-02-22T10:25:28.620Z,1.70
2018-02-22T10:27:56.056Z,1.80
2018-02-22T10:30:23.494Z,1.80
2018-02-22T10:32:50.917Z,1.80
2018-02-22T10:35:18.363Z,1.90
2018-02-22T10:37:45.811Z,1.70
2018-02-22T10:40:13.232Z,1.80
2018-02-22T10:42:41.057Z,1.80
2018-02-22T10:45:08.514Z,1.80
2018-02-22T10:47:35.941Z,1.80
2018-02-22T10:50:03.431Z,1.90
2018-02-22T10:52:30.805Z,2.00
2018-02-22T10:54:58.228Z,2.00
2018-02-22T10:57:25.652Z,2.00
2018-02-22T10:59:53.076Z,2.10
2018-02-22T11:02:26.456Z,2.00
2018-02-22T11:04:53.876Z,2.00
2018-02-22T11:07:21.321Z,2.10
2018-02-22T11:09:48.768Z,2.20
2018-02-22T11:12:16.190Z,2.30
2018-02-22T11:14:43.620Z,2.40
2018-02-22T11:17:11.044Z,2.30
2018-02-22T11:19:38.463Z,2.40
2018-02-22T11:22:05.888Z,2.30
2018-02-22T11:24:33.341Z,2.30
2018-02-22T11:27:00.801Z,2.40
2018-02-22T11:29:28.238Z,2.30
2018-02-22T11:31:55.689Z,2.40
2018-02-22T11:34:23.147Z,2.60
2018-02-22T11:36:50.548Z,2.50
2018-02-22T11:39:17.978Z,2.50
2018-02-22T11:41:45.433Z,2.40
2018-02-22T11:44:12.884Z,2.50
2018-02-22T11:46:40.313Z,2.60
2018-02-22T11:49:07.732Z,2.60
2018-02-22T11:51:35.177Z,2.70
2018-02-22T11:54:02.621Z,2.90
2018-02-22T11:56:30.069Z,3.00
2018-02-22T11:58:57.493Z,2.80
2018-02-22T12:01:24.924Z,2.70
2018-02-22T12:03:52.344Z,2.70
2018-02-22T12:06:19.804Z,2.70
2018-02-22T12:08:47.231Z,2.70
2018-02-22T12:11:14.657Z,2.70
2018-02-22T12:13:42.467Z,2.60
2018-02-22T12:16:09.911Z,2.60
2018-02-22T12:18:37.337Z,2.60
2018-02-22T12:21:04.770Z,2.60
2018-02-22T12:23:32.196Z,2.60
2018-02-22T12:25:59.632Z,2.70
2018-02-22T12:28:27.065Z,2.80
2018-02-22T12:30:54.893Z,2.70
2018-02-22T12:33:22.326Z,2.70
2018-02-22T12:35:50.572Z,2.60
2018-02-22T12:38:17.996Z,2.70
2018-02-22T12:40:45.416Z,2.90
2018-02-22T12:43:12.845Z,2.90
2018-02-22T12:45:40.284Z,2.80
2018-02-22T12:48:08.097Z,2.80
2018-02-22T12:50:35.530Z,2.80
2018-02-22T12:53:02.955Z,2.80
2018-02-22T12:55:30.394Z,2.80
2018-02-22T12:57:57.814Z,2.80
2018-02-22T13:00:25.251Z,2.90
2018-02-22T13:02:52.665Z,3.00
2018-02-22T13:05:20.096Z,2.90
2018-02-22T13:07:47.522Z,2.90
2018-02-22T13:10:14.946Z,2.90
2018-02-22T13:12:42.372Z,2.90
2018-02-22T13:15:09.801Z,3.10
2018-02-22T13:17:37.233Z,3.10
2018-02-22T13:20:04.661Z,3.10
2018-02-22T13:22:32.117Z,3.20
2018-02-22T13:24:59.550Z,3.20
2018-02-22T13:27:26.993Z,3.10
2018-02-22T13:29:54.436Z,3.10
2018-02-22T13:32:21.893Z,3.10
2018-02-22T13:34:49.315Z,3.20
2018-02-22T13:37:28.483Z,3.20
2018-02-22T13:39:55.901Z,3.20
2018-02-22T13:42:23.782Z,3.30
2018-02-22T13:47:55.700Z,3.40
2018-02-22T13:50:35.015Z,3.40
2018-02-22T13:53:02.441Z,3.40
2018-02-22T13:55:30.252Z,3.30
2018-02-22T13:57:57.679Z,3.30
2018-02-22T14:00:37.009Z,3.30
2018-02-22T14:03:04.814Z,3.30
2018-02-22T14:05:32.259Z,3.30
2018-02-22T14:07:59.677Z,3.20
2018-02-22T14:10:27.122Z,3.30
2018-02-22T14:12:54.532Z,3.30
2018-02-22T14:15:21.958Z,3.40
2018-02-22T14:17:49.397Z,3.40
2018-02-22T14:20:17.241Z,3.30
2018-02-22T14:22:44.635Z,3.30
2018-02-22T14:25:12.073Z,3.30
2018-02-22T14:27:39.888Z,3.40
2018-02-22T14:30:07.301Z,3.40
2018-02-22T14:32:34.741Z,3.50
2018-02-22T14:35:02.157Z,3.50
2018-02-22T14:37:29.577Z,3.50
2018-02-22T14:39:57.055Z,3.40
2018-02-22T14:42:24.465Z,3.40
2018-02-22T14:44:52.275Z,3.30
2018-02-22T14:47:19.698Z,3.30
2018-02-22T14:49:47.508Z,3.30
2018-02-22T14:52:14.964Z,3.30
2018-02-22T14:54:42.412Z,3.30
2018-02-22T14:57:09.845Z,3.30
2018-02-22T14:59:37.276Z,3.30
2018-02-22T15:02:05.119Z,3.30
2018-02-22T15:04:32.529Z,3.30
2018-02-22T15:06:59.966Z,3.20
2018-02-22T15:09:27.388Z,3.20
2018-02-22T15:11:54.807Z,3.20
2018-02-22T15:14:22.236Z,3.20
2018-02-22T15:16:49.680Z,3.20
2018-02-22T15:19:17.097Z,3.20
2018-02-22T15:21:44.529Z,3.20
2018-02-22T15:24:11.948Z,3.20
2018-02-22T15:26:39.378Z,3.20
2018-02-22T15:29:06.804Z,3.20
2018-02-22T15:31:34.292Z,3.20
2018-02-22T15:34:01.725Z,3.20
2018-02-22T15:36:29.158Z,3.10
2018-02-22T15:38:56.582Z,3.00
2018-02-22T15:41:24.695Z,3.00
2018-02-22T15:43:52.193Z,3.00
2018-02-22T15:46:19.615Z,2.90
2018-02-22T15:48:47.031Z,3.00
2018-02-22T15:51:14.867Z,3.00
2018-02-22T15:53:43.205Z,2.90
2018-02-22T15:56:10.632Z,2.90
2018-02-22T15:58:38.474Z,2.80
2018-02-22T16:01:05.936Z,2.80
2018-02-22T16:03:33.348Z,2.80
2018-02-22T16:06:00.781Z,2.80
2018-02-22T16:08:28.198Z,2.80
2018-02-22T16:10:55.636Z,2.70
2018-02-22T16:13:23.055Z,2.70
2018-02-22T16:15:50.479Z,2.70
2018-02-22T16:18:18.297Z,2.60
2018-02-22T16:20:45.758Z,2.60
2018-02-22T16:23:13.180Z,2.60
2018-02-22T16:25:40.605Z,2.60
2018-02-22T16:28:08.050Z,2.50
2018-02-22T16:30:35.471Z,2.50
2018-02-22T16:33:02.890Z,2.50
2018-02-22T16:35:30.706Z,2.40
2018-02-22T16:37:58.173Z,2.40
2018-02-22T16:40:25.630Z,2.40
2018-02-22T16:42:53.056Z,2.40
2018-02-22T16:45:20.467Z,2.40
2018-02-22T16:47:47.955Z,2.30
2018-02-22T16:50:15.416Z,2.30
2018-02-22T16:52:44.861Z,2.30
2018-02-22T16:55:12.313Z,2.30
2018-02-22T16:57:40.752Z,2.20
2018-02-22T17:00:08.577Z,2.10
2018-02-22T17:02:37.719Z,2.10
2018-02-22T17:05:06.128Z,2.10
2018-02-22T17:07:35.433Z,2.10
2018-02-22T17:10:03.824Z,2.00
2018-02-22T17:12:31.277Z,2.00
2018-02-22T17:14:58.822Z,1.90
2018-02-22T17:17:38.090Z,1.90
2018-02-22T17:20:05.544Z,1.90
2018-02-22T17:22:32.974Z,1.80
2018-02-22T17:25:00.407Z,1.80
2018-02-22T17:27:33.496Z,1.80
2018-02-22T17:30:06.620Z,1.70
2018-02-22T17:32:33.604Z,1.70
2018-02-22T17:35:02.684Z,1.60
2018-02-22T17:37:31.776Z,1.70
2018-02-22T17:43:05.271Z,1.60
2018-02-22T17:45:34.026Z,1.50
2018-02-22T17:48:01.486Z,1.50
2018-02-22T17:50:28.903Z,1.40
2018-02-22T17:52:56.331Z,1.40
2018-02-22T17:55:23.749Z,1.30
2018-02-22T17:57:51.180Z,1.30
2018-02-22T18:00:18.604Z,1.30
2018-02-22T18:02:46.036Z,1.20
2018-02-22T18:05:13.461Z,1.20
2018-02-22T18:07:40.891Z,1.20
2018-02-22T18:10:08.708Z,1.20
2018-02-22T18:12:36.184Z,1.20
2018-02-22T18:15:03.549Z,1.10
2018-02-22T18:17:30.997Z,1.10
2018-02-22T18:19:58.400Z,1.10
2018-02-22T18:22:25.847Z,1.00
2018-02-22T18:24:53.283Z,1.00
2018-02-22T18:27:20.701Z,1.00
2018-02-22T18:29:48.158Z,1.00
2018-02-22T18:32:15.934Z,0.90
2018-02-22T18:34:43.395Z,0.90
2018-02-22T18:37:16.590Z,0.90
2018-02-22T18:39:44.011Z,0.90
2018-02-22T18:42:17.025Z,0.90
2018-02-22T18:44:50.186Z,0.80
2018-02-22T18:47:17.616Z,0.80
2018-02-22T18:49:45.436Z,0.80
2018-02-22T18:52:12.872Z,0.80
2018-02-22T18:54:40.284Z,0.80
2018-02-22T18:57:08.099Z,0.80
2018-02-22T18:59:35.532Z,0.80
2018-02-22T19:02:03.030Z,0.70
2018-02-22T19:04:30.432Z,0.70
2018-02-22T19:06:57.852Z,0.60
2018-02-22T19:09:25.300Z,0.60
2018-02-22T19:11:52.720Z,0.60
2018-02-22T19:14:20.148Z,0.60
2018-02-22T19:16:47.969Z,0.60
2018-02-22T19:19:15.388Z,0.60
2018-02-22T19:21:42.810Z,0.60
2018-02-22T19:24:10.251Z,0.60
2018-02-22T19:26:37.665Z,0.50
2018-02-22T19:29:05.092Z,0.50
2018-02-22T19:31:32.904Z,0.50
2018-02-22T19:34:00.328Z,0.50
2018-02-22T19:36:27.757Z,0.50
2018-02-22T19:38:55.289Z,0.40
2018-02-22T19:41:22.718Z,0.40
2018-02-22T19:43:50.143Z,0.40
2018-02-22T19:46:17.564Z,0.40
2018-02-22T19:48:44.988Z,0.40
2018-02-22T19:51:12.409Z,0.40
2018-02-22T19:53:40.232Z,0.40
2018-02-22T19:56:07.651Z,0.40
2018-02-22T19:58:35.088Z,0.30
2018-02-22T20:01:02.515Z,0.30
2018-02-22T20:03:29.936Z,0.30
2018-02-22T20:05:57.355Z,0.30
2018-02-22T20:08:25.186Z,0.30
2018-02-22T20:10:52.618Z,0.30
2018-02-22T20:13:20.089Z,0.30
2018-02-22T20:15:47.516Z,0.20
2018-02-22T20:18:14.949Z,0.20
2018-02-22T20:20:42.764Z,0.20
2018-02-22T20:23:10.193Z,0.20
2018-02-22T20:25:37.617Z,0.20
2018-02-22T20:28:05.460Z,0.10
2018-02-22T20:30:32.880Z,0.10
2018-02-22T20:33:00.309Z,0.10
2018-02-22T20:35:27.733Z,0.10
2018-02-22T20:37:55.167Z,0.10
2018-02-22T20:40:22.584Z,0.00
2018-02-22T20:42:50.010Z,0.00
2018-02-22T20:45:17.424Z,0.00
2018-02-22T20:47:44.846Z,0.00
2018-02-22T20:50:12.285Z,0.00
2018-02-22T20:52:42.532Z,0.00
2018-02-22T20:55:27.732Z,0.00
2018-02-22T20:57:55.167Z,0.00
2018-02-22T21:00:22.601Z,-0.10
2018-02-22T21:02:50.035Z,-0.10
2018-02-22T21:05:17.462Z,-0.10
2018-02-22T21:07:44.894Z,-0.10
2018-02-22T21:22:14.397Z,-0.20
2018-02-22T21:24:42.230Z,-0.20
2018-02-22T21:27:09.644Z,-0.20
2018-02-22T21:29:37.088Z,-0.20
2018-02-22T21:32:04.512Z,-0.20
2018-02-22T21:34:31.955Z,-0.20
2018-02-22T21:36:59.386Z,-0.20
2018-02-22T21:39:26.818Z,-0.20
2018-02-22T21:41:54.240Z,-0.20
2018-02-22T21:44:21.686Z,-0.20
2018-02-22T21:46:49.115Z,-0.30
2018-02-22T21:49:16.549Z,-0.30
2018-02-22T21:51:43.969Z,-0.30
2018-02-22T21:54:11.391Z,-0.30
2018-02-22T21:56:38.820Z,-0.30
2018-02-22T21:59:07.900Z,-0.30
2018-02-22T22:01:35.713Z,-0.30
2018-02-22T22:04:03.185Z,-0.30
2018-02-22T22:06:30.624Z,-0.30
2018-02-22T22:08:58.067Z,-0.30
2018-02-22T22:11:25.499Z,-0.30
2018-02-22T22:13:52.931Z,-0.40
2018-02-22T22:16:20.365Z,-0.40
2018-02-22T22:18:47.805Z,-0.40
2018-02-22T22:21:15.267Z,-0.40
2018-02-22T22:23:42.741Z,-0.50
2018-02-22T22:26:10.214Z,-0.40
2018-02-22T22:28:37.660Z,-0.50
2018-02-22T22:31:05.151Z,-0.50
2018-02-22T22:33:33.009Z,-0.50
2018-02-22T22:36:00.458Z,-0.50
2018-02-22T22:38:28.311Z,-0.60
2018-02-22T22:40:55.789Z,-0.60
2018-02-22T22:43:23.229Z,-0.60
2018-02-22T22:45:50.707Z,-0.60
2018-02-22T22:48:18.532Z,-0.60
2018-02-22T22:50:45.999Z,-0.60
2018-02-22T22:53:13.493Z,-0.70
2018-02-22T22:55:41.286Z,-0.70
2018-02-22T22:58:08.782Z,-0.70
2018-02-22T23:00:40.332Z,-0.70
2018-02-22T23:03:08.376Z,-0.70
2018-02-22T23:05:35.843Z,-0.70
2018-02-22T23:08:03.281Z,-0.70
2018-02-22T23:10:30.745Z,-0.70
2018-02-22T23:12:58.231Z,-0.70
2018-02-22T23:15:25.674Z,-0.70
2018-02-22T23:17:53.130Z,-0.70
2018-02-22T23:20:20.632Z,-0.80
2018-02-22T23:22:48.080Z,-0.80
2018-02-22T23:25:15.901Z,-0.80
2018-02-22T23:27:43.320Z,-0.80
2018-02-22T23:30:10.760Z,-0.80
2018-02-22T23:32:38.579Z,-0.90
2018-02-22T23:35:06.023Z,-0.90
2018-02-22T23:37:33.466Z,-0.90
2018-02-22T23:40:00.900Z,-0.90
2018-02-22T23:42:28.757Z,-0.90
2018-02-22T23:44:56.592Z,-0.90
2018-02-22T23:47:24.017Z,-0.90
2018-02-22T23:49:51.456Z,-1.00
2018-02-22T23:52:18.912Z,-1.00
2018-02-22T23:54:46.348Z,-1.00
2018-02-22T23:57:14.166Z,-1.00
2018-02-22T23:59:41.590Z,-1.00
